Time;durP1;ratioP1;P1;durP2;ratioP2;P2;SDS_P1;SDS_P2;PMS_P1;PMS_P2;Temp;Humidity;BMP_temperature;BMP_pressure;BME280_temperature;BME280_humidity;BME280_pressure;Samples;Min_cycle;Max_cycle;Signal;HPM_P1;HPM_P2
2023/02/21 02:14:08;;;;;;;27.35;19.38;;;2.80;99.90;;;1.76;100.00;101713.22;4170238;28;20064;-78
2023/02/21 02:16:34;;;;;;;27.77;19.33;;;2.80;99.90;;;1.81;100.00;101709.47;4173431;28;20025;-78
2023/02/21 02:19:13;;;;;;;33.97;20.08;;;2.80;99.90;;;1.89;100.00;101712.53;4173471;28;20072;-78
2023/02/21 02:21:55;;;;;;;30.38;20.35;;;2.90;99.90;;;1.96;100.00;101708.72;4159685;28;20119;-78
2023/02/21 02:24:31;;;;;;;27.95;19.27;;;2.90;99.90;;;1.95;100.00;101703.56;4170922;28;20075;-78
2023/02/21 02:27:03;;;;;;;27.60;18.02;;;3.00;99.90;;;1.84;100.00;101688.50;4170885;28;20053;-78
2023/02/21 02:29:31;;;;;;;25.27;17.67;;;2.90;99.90;;;1.76;100.00;101687.22;4186023;28;20029;-78
2023/02/21 02:32:19;;;;;;;29.58;19.45;;;2.80;99.90;;;1.72;100.00;101686.53;4174556;28;20479;-78
2023/02/21 02:34:53;;;;;;;28.15;18.20;;;2.80;99.90;;;1.77;100.00;101684.53;4121059;28;20059;-78
2023/02/21 02:37:58;;;;;;;23.80;16.50;;;2.80;99.90;;;1.67;100.00;101672.91;4115054;28;20122;-78
2023/02/21 02:40:22;;;;;;;24.73;17.05;;;2.80;99.90;;;1.61;100.00;101665.44;4131649;28;20037;-78
2023/02/21 02:42:38;;;;;;;20.30;13.53;;;2.70;99.90;;;1.61;100.00;101662.81;4169431;28;20064;-78
2023/02/21 02:44:43;;;;;;;24.40;16.83;;;2.70;99.90;;;1.56;100.00;101657.00;4170637;28;20330;-78
2023/02/21 02:46:47;;;;;;;25.00;16.80;;;2.70;99.90;;;1.55;100.00;101648.34;4176023;28;20027;-78
2023/02/21 02:48:59;;;;;;;29.13;19.92;;;2.60;99.90;;;1.55;100.00;101642.34;4171464;28;20025;-78
2023/02/21 02:51:08;;;;;;;25.30;17.92;;;2.60;99.90;;;1.65;100.00;101653.94;4169131;28;20032;-78
2023/02/21 02:53:09;;;;;;;27.50;18.17;;;2.60;99.90;;;1.63;100.00;101640.19;4169800;28;20041;-78
2023/02/21 02:55:32;;;;;;;24.17;16.73;;;2.70;99.90;;;1.69;100.00;101642.47;4164532;28;20029;-78
2023/02/21 02:57:40;;;;;;;28.88;17.88;;;2.70;99.90;;;1.68;100.00;101641.63;4163580;28;20029;-78
2023/02/21 02:59:45;;;;;;;22.67;15.68;;;2.70;99.90;;;1.73;100.00;101648.38;4169322;28;20032;-78
2023/02/21 03:01:58;;;;;;;25.70;17.13;;;2.70;99.90;;;1.72;100.00;101644.06;4169036;28;20036;-78
2023/02/21 03:04:16;;;;;;;22.77;15.70;;;2.70;99.90;;;1.71;100.00;101638.03;4170343;28;20021;-78
2023/02/21 03:07:00;;;;;;;23.73;16.27;;;2.70;99.90;;;1.72;100.00;101631.06;4187899;28;20032;-78
2023/02/21 03:09:18;;;;;;;26.38;17.20;;;2.70;99.90;;;1.70;100.00;101631.16;4185237;28;20122;-78
2023/02/21 03:11:25;;;;;;;25.17;18.25;;;2.70;99.90;;;1.69;100.00;101626.88;4186729;28;20039;-78
2023/02/21 03:13:47;;;;;;;30.17;17.42;;;2.70;99.90;;;1.69;100.00;101621.66;4185438;28;20104;-78
2023/02/21 03:16:09;;;;;;;25.75;17.42;;;2.70;99.90;;;1.67;100.00;101623.50;4186756;28;20029;-78
2023/02/21 03:18:40;;;;;;;23.70;17.80;;;2.70;99.90;;;1.73;100.00;101625.81;4152826;28;20033;-78
2023/02/21 03:20:42;;;;;;;24.15;16.88;;;2.70;99.90;;;1.74;100.00;101622.25;4169910;28;20052;-77
2023/02/21 03:22:45;;;;;;;24.88;17.55;;;2.70;99.90;;;1.76;100.00;101617.84;4168793;28;20070;-78
2023/02/21 03:24:49;;;;;;;24.95;17.73;;;2.80;99.90;;;1.76;100.00;101619.59;4169848;28;20029;-78
2023/02/21 03:26:55;;;;;;;27.23;17.45;;;2.80;99.90;;;1.87;100.00;101618.13;4169094;28;20039;-78
2023/02/21 03:28:56;;;;;;;51.63;19.02;;;2.90;99.90;;;1.92;100.00;101618.72;4168828;28;20041;-78
2023/02/21 03:31:01;;;;;;;66.00;20.83;;;2.90;99.90;;;1.99;100.00;101617.50;4169219;28;20064;-78
2023/02/21 03:33:02;;;;;;;31.60;18.17;;;3.00;99.90;;;2.09;100.00;101616.06;4168609;28;20048;-78
2023/02/21 03:35:03;;;;;;;31.70;17.63;;;3.10;99.90;;;2.17;100.00;101626.09;4168698;28;20026;-78
2023/02/21 03:37:17;;;;;;;28.85;17.50;;;3.20;99.90;;;2.21;100.00;101615.41;4176943;28;20021;-78
2023/02/21 03:39:18;;;;;;;33.70;19.05;;;3.20;99.90;;;2.19;100.00;101609.47;4169783;28;20083;-78
2023/02/21 03:41:19;;;;;;;33.20;19.23;;;3.30;99.90;;;2.24;100.00;101609.22;4168348;28;20025;-78
2023/02/21 03:43:20;;;;;;;31.08;17.92;;;3.30;99.90;;;2.27;100.00;101611.66;4168609;28;20053;-78
2023/02/21 03:45:22;;;;;;;61.35;20.40;;;3.30;99.90;;;2.26;100.00;101603.94;4168533;28;20067;-78
2023/02/21 03:47:23;;;;;;;32.58;18.55;;;3.30;99.90;;;2.27;100.00;101608.22;4178092;28;20029;-78
2023/02/21 03:49:23;;;;;;;42.17;19.60;;;3.30;99.90;;;2.29;100.00;101608.97;4169833;28;20029;-78
2023/02/21 03:51:24;;;;;;;31.88;19.38;;;3.30;99.90;;;2.29;100.00;101606.38;4169391;28;20025;-78
2023/02/21 03:53:25;;;;;;;39.60;18.75;;;3.30;99.90;;;2.29;100.00;101599.41;4168094;28;20428;-78
2023/02/21 03:55:26;;;;;;;33.22;19.17;;;3.40;99.90;;;2.32;100.00;101598.41;4183422;28;20044;-78
2023/02/21 03:57:27;;;;;;;31.77;18.85;;;3.40;99.90;;;2.32;100.00;101598.41;4174278;28;20052;-78
2023/02/21 03:59:28;;;;;;;19.80;15.27;;;3.30;99.90;;;2.31;100.00;101601.91;4184729;28;20035;-78
2023/02/21 04:01:29;;;;;;;47.60;18.10;;;3.40;99.90;;;2.32;100.00;101594.03;4163199;28;20052;-78
2023/02/21 04:03:30;;;;;;;24.77;17.58;;;3.40;99.90;;;2.32;100.00;101586.22;4169873;28;20030;-78
2023/02/21 04:05:31;;;;;;;39.30;17.98;;;3.40;99.90;;;2.33;100.00;101582.69;4168048;28;20135;-78
2023/02/21 04:07:32;;;;;;;40.25;17.50;;;3.40;99.90;;;2.35;100.00;101586.06;4172171;28;20025;-78
2023/02/21 04:09:33;;;;;;;29.50;16.63;;;3.40;99.90;;;2.32;100.00;101574.97;4169254;28;20041;-78
2023/02/21 04:11:34;;;;;;;29.60;17.50;;;3.40;99.90;;;2.34;100.00;101573.97;4170903;28;20455;-78
2023/02/21 04:13:34;;;;;;;54.92;18.35;;;3.40;99.90;;;2.30;100.00;101569.03;4168300;28;20440;-78
2023/02/21 04:15:35;;;;;;;30.77;16.65;;;3.40;99.90;;;2.33;100.00;101566.25;4167986;28;20025;-78
2023/02/21 04:17:36;;;;;;;21.40;16.00;;;3.40;99.90;;;2.29;100.00;101554.31;4170660;28;20029;-78
2023/02/21 04:19:37;;;;;;;25.00;16.15;;;3.40;99.90;;;2.31;100.00;101571.53;4167705;28;20041;-78
2023/02/21 04:21:38;;;;;;;25.90;16.98;;;3.40;99.90;;;2.29;100.00;101556.91;4171885;28;20060;-78
2023/02/21 04:23:39;;;;;;;19.90;14.05;;;3.40;99.90;;;2.26;100.00;101557.09;4160557;28;20030;-78
2023/02/21 04:25:40;;;;;;;26.90;15.30;;;3.40;99.90;;;2.24;100.00;101552.78;4151205;28;20065;-77
2023/02/21 04:27:41;;;;;;;23.70;16.13;;;3.30;99.90;;;2.20;100.00;101551.28;4164850;28;20516;-78
2023/02/21 04:29:42;;;;;;;27.20;15.73;;;3.30;99.90;;;2.26;100.00;101557.09;4184240;28;20029;-78
2023/02/21 04:31:42;;;;;;;26.42;16.67;;;3.30;99.90;;;2.24;100.00;101558.00;4178460;28;20105;-78
2023/02/21 04:33:44;;;;;;;22.08;15.73;;;3.30;99.90;;;2.23;100.00;101551.13;4168946;28;20053;-78
2023/02/21 04:35:44;;;;;;;21.63;16.10;;;3.30;99.90;;;2.17;100.00;101543.66;4167336;28;20108;-78
2023/02/21 04:37:45;;;;;;;33.67;17.48;;;3.30;99.90;;;2.18;100.00;101550.50;4179260;28;20033;-78
2023/02/21 04:39:46;;;;;;;21.90;15.77;;;3.30;99.90;;;2.10;100.00;101537.09;4167565;28;20040;-78
2023/02/21 04:41:47;;;;;;;19.80;15.73;;;3.20;99.90;;;2.15;100.00;101544.66;4167533;28;20059;-78
2023/02/21 04:43:48;;;;;;;21.10;14.98;;;3.20;99.90;;;2.07;100.00;101539.84;4167711;28;20530;-78
2023/02/21 04:45:49;;;;;;;18.55;14.25;;;3.20;99.90;;;2.05;100.00;101536.50;4168625;28;20401;-78
2023/02/21 04:47:50;;;;;;;21.83;15.88;;;3.20;99.90;;;2.01;100.00;101539.34;4175833;28;20044;-78
2023/02/21 04:49:51;;;;;;;21.15;16.33;;;3.10;99.90;;;2.01;100.00;101541.94;4167498;28;20060;-78
2023/02/21 04:51:53;;;;;;;19.90;15.68;;;3.10;99.90;;;1.98;100.00;101550.75;4164822;28;20025;-78
2023/02/21 04:53:55;;;;;;;22.02;16.08;;;3.00;99.90;;;1.97;100.00;101548.25;4181782;28;20033;-78
2023/02/21 04:55:56;;;;;;;20.15;15.48;;;3.00;99.90;;;1.92;100.00;101550.22;4167428;28;20025;-78
2023/02/21 04:57:56;;;;;;;18.85;13.73;;;3.00;99.90;;;1.88;100.00;101556.53;4174102;28;20525;-78
2023/02/21 04:59:59;;;;;;;20.27;15.40;;;3.00;99.90;;;1.83;100.00;101558.50;4167527;28;20021;-78
2023/02/21 05:02:00;;;;;;;20.42;14.07;;;2.90;99.90;;;1.74;100.00;101546.84;4168476;28;20026;-78
2023/02/21 05:04:01;;;;;;;19.13;15.63;;;2.80;99.90;;;1.74;100.00;101565.03;4168669;28;20393;-78
2023/02/21 05:06:02;;;;;;;21.67;16.30;;;2.80;99.90;;;1.70;100.00;101555.75;4168396;28;20458;-78
2023/02/21 05:08:03;;;;;;;23.08;15.77;;;2.80;99.90;;;1.70;100.00;101545.34;4170759;28;20044;-78
2023/02/21 05:10:05;;;;;;;20.45;15.25;;;2.80;99.90;;;1.72;100.00;101556.50;4167332;28;20022;-78
2023/02/21 05:12:10;;;;;;;21.48;15.23;;;2.80;99.90;;;1.64;100.00;101550.84;4168538;28;20026;-78
2023/02/21 05:14:11;;;;;;;20.60;14.80;;;2.70;99.90;;;1.53;100.00;101537.53;4167561;28;20029;-78
2023/02/21 05:16:12;;;;;;;21.25;15.07;;;2.70;99.90;;;1.61;100.00;101553.63;4168488;28;20025;-78
2023/02/21 05:18:13;;;;;;;19.45;15.30;;;2.70;99.90;;;1.55;100.00;101538.31;4169275;28;20108;-78
2023/02/21 05:20:14;;;;;;;21.30;15.13;;;2.70;99.90;;;1.56;100.00;101545.19;4167166;28;20552;-78
2023/02/21 05:22:19;;;;;;;18.50;14.35;;;2.60;99.90;;;1.51;100.00;101537.63;4168841;28;20042;-78
2023/02/21 05:24:19;;;;;;;;;;;2.60;99.90;;;1.45;100.00;101537.09;4169016;28;20093;-78
2023/02/21 05:26:24;;;;;;;20.25;14.35;;;2.60;99.90;;;1.44;100.00;101535.41;4183731;28;19932;-78
2023/02/21 05:28:26;;;;;;;17.95;14.15;;;2.50;99.90;;;1.46;100.00;101542.25;4183889;28;20029;-78
2023/02/21 05:30:27;;;;;;;20.25;15.52;;;2.50;99.90;;;1.50;100.00;101543.75;4175006;28;20030;-78
2023/02/21 05:32:28;;;;;;;21.02;15.40;;;2.50;99.90;;;1.52;100.00;101535.88;4167387;28;20113;-78
2023/02/21 05:34:31;;;;;;;18.10;13.38;;;2.60;99.90;;;1.42;100.00;101530.31;4151052;28;20052;-78
2023/02/21 05:36:32;;;;;;;17.45;13.32;;;2.60;99.90;;;1.44;100.00;101545.81;4169236;28;20454;-78
2023/02/21 05:38:42;;;;;;;19.83;14.63;;;2.50;99.90;;;1.43;100.00;101538.97;4174717;28;20481;-78
2023/02/21 05:40:43;;;;;;;20.05;14.82;;;2.50;99.90;;;1.42;100.00;101538.13;4168263;28;20481;-78
2023/02/21 05:42:44;;;;;;;19.33;14.13;;;2.50;99.90;;;1.45;100.00;101540.56;4170438;28;20072;-78
2023/02/21 05:44:46;;;;;;;18.92;15.05;;;2.50;99.90;;;1.42;100.00;101535.50;4170171;28;20100;-78
2023/02/21 05:46:47;;;;;;;20.65;15.25;;;2.50;99.90;;;1.43;100.00;101534.59;4175826;28;20021;-78
2023/02/21 05:48:49;;;;;;;18.20;14.80;;;2.50;99.90;;;1.46;100.00;101539.66;4170101;28;20093;-78
2023/02/21 05:50:50;;;;;;;18.25;15.32;;;2.50;99.90;;;1.44;100.00;101525.03;4203238;28;20079;-78
2023/02/21 05:52:51;;;;;;;16.10;13.48;;;2.50;99.90;;;1.43;100.00;101529.41;4170158;28;20014;-78
2023/02/21 05:54:52;;;;;;;20.27;14.50;;;2.50;99.90;;;1.40;100.00;101523.53;4187939;28;20092;-78
2023/02/21 05:56:53;;;;;;;19.23;14.73;;;2.50;99.90;;;1.39;100.00;101514.03;4182917;28;20492;-78
2023/02/21 05:58:54;;;;;;;19.20;15.05;;;2.50;99.90;;;1.38;100.00;101515.78;4170155;28;20037;-78
2023/02/21 06:00:54;;;;;;;15.65;12.82;;;2.50;99.90;;;1.39;100.00;101514.03;4170222;28;20021;-78
2023/02/21 06:02:56;;;;;;;18.63;13.35;;;2.50;99.90;;;1.41;100.00;101513.03;4171575;28;20508;-78
2023/02/21 06:04:56;;;;;;;19.17;14.52;;;2.50;99.90;;;1.37;100.00;101510.69;4174532;28;20026;-78
2023/02/21 06:06:57;;;;;;;20.42;15.25;;;2.50;99.90;;;1.28;100.00;101493.81;4173175;28;20088;-78
2023/02/21 06:08:58;;;;;;;21.85;15.40;;;2.40;99.90;;;1.40;100.00;101505.31;4170047;28;20041;-78
2023/02/21 06:10:59;;;;;;;21.10;16.17;;;2.40;99.90;;;1.41;100.00;101505.22;4170078;28;20040;-78
2023/02/21 06:13:00;;;;;;;21.88;16.30;;;2.50;99.90;;;1.47;100.00;101498.88;4171093;28;20029;-78
2023/02/21 06:15:06;;;;;;;24.20;17.33;;;2.50;99.90;;;1.49;100.00;101494.44;4170951;28;20068;-78
2023/02/21 06:17:06;;;;;;;23.73;17.48;;;2.50;99.90;;;1.53;100.00;101490.75;4170115;28;20022;-78
2023/02/21 06:19:09;;;;;;;22.98;17.33;;;2.60;99.90;;;1.64;100.00;101497.06;4169835;28;20524;-78
2023/02/21 06:21:10;;;;;;;22.83;17.52;;;2.60;99.90;;;1.65;100.00;101493.56;4169542;28;20043;-78
2023/02/21 06:23:11;;;;;;;24.98;17.98;;;2.70;99.90;;;1.71;100.00;101492.38;4169712;28;20057;-78
2023/02/21 06:25:12;;;;;;;22.40;17.17;;;2.70;99.90;;;1.78;100.00;101493.75;4170979;28;20037;-78
2023/02/21 06:27:14;;;;;;;24.05;17.50;;;2.80;99.90;;;1.77;100.00;101486.00;4178132;28;20029;-78
2023/02/21 06:29:15;;;;;;;23.85;17.10;;;2.80;99.90;;;1.81;100.00;101487.53;4173563;28;20116;-78
2023/02/21 06:31:17;;;;;;;26.27;17.13;;;2.90;99.90;;;1.73;100.00;101469.75;4169720;28;20033;-78
2023/02/21 06:33:18;;;;;;;26.08;18.42;;;2.90;99.90;;;1.85;100.00;101484.69;4153378;28;20022;-78
2023/02/21 06:35:19;;;;;;;24.77;18.58;;;2.90;99.90;;;1.96;100.00;101482.34;4169427;28;20057;-78
2023/02/21 06:37:20;;;;;;;24.40;17.85;;;3.00;99.90;;;1.99;100.00;101477.00;4185906;28;20075;-78
2023/02/21 06:39:22;;;;;;;27.50;18.60;;;3.00;99.90;;;2.08;100.00;101481.69;4170505;28;20087;-78
2023/02/21 06:41:28;;;;;;;24.15;17.05;;;3.10;99.90;;;2.08;100.00;101479.09;4170634;28;20037;-78
2023/02/21 06:43:29;;;;;;;23.33;17.60;;;3.10;99.90;;;2.07;100.00;101468.75;4169483;28;20029;-78
2023/02/21 06:45:30;;;;;;;25.00;17.33;;;3.20;99.90;;;2.13;100.00;101477.06;4169357;28;20029;-78
2023/02/21 06:47:31;;;;;;;23.77;17.63;;;3.20;99.90;;;2.17;100.00;101475.13;4176317;28;20477;-78
2023/02/21 06:49:32;;;;;;;22.73;16.23;;;3.20;99.90;;;2.17;100.00;101483.78;4170479;28;20029;-78
2023/02/21 06:51:35;;;;;;;21.48;16.25;;;3.30;99.90;;;2.15;100.00;101480.41;4169106;28;20029;-78
2023/02/21 06:53:40;;;;;;;22.98;17.45;;;3.20;99.90;;;2.16;100.00;101484.72;4169156;28;20491;-78
2023/02/21 06:55:41;;;;;;;21.92;16.05;;;3.20;99.90;;;2.17;100.00;101483.78;4172222;28;20033;-78
2023/02/21 06:57:42;;;;;;;20.45;15.60;;;3.20;99.90;;;2.12;100.00;101472.78;4178547;28;20570;-78
2023/02/21 06:59:43;;;;;;;23.35;16.02;;;3.20;99.90;;;2.07;100.00;101464.38;4169359;28;20587;-78
2023/02/21 07:01:44;;;;;;;24.60;16.73;;;3.20;99.90;;;2.12;100.00;101475.38;4170278;28;20060;-78
2023/02/21 07:03:46;;;;;;;20.25;15.23;;;3.20;99.90;;;2.13;100.00;101474.47;4168915;28;20056;-78
2023/02/21 07:05:47;;;;;;;22.13;15.98;;;3.20;99.90;;;2.14;100.00;101476.16;4169489;28;20555;-78
2023/02/21 07:07:48;;;;;;;20.15;16.05;;;3.20;99.90;;;2.19;100.00;101481.94;4175501;28;20029;-78
2023/02/21 07:09:49;;;;;;;23.73;17.55;;;3.30;99.90;;;2.17;100.00;101483.78;4170171;28;20030;-78
2023/02/21 07:11:50;;;;;;;22.08;16.15;;;3.30;99.90;;;2.11;100.00;101455.50;4170245;28;20367;-78
2023/02/21 07:13:53;;;;;;;21.85;15.63;;;3.30;99.90;;;2.27;100.00;101478.06;4168921;28;20036;-78
2023/02/21 07:15:53;;;;;;;23.95;16.27;;;3.30;99.90;;;2.29;100.00;101490.09;4170277;28;20065;-77
2023/02/21 07:17:54;;;;;;;25.52;18.25;;;3.40;99.90;;;2.27;100.00;101470.28;4173597;28;20397;-78
2023/02/21 07:19:55;;;;;;;25.65;17.83;;;3.40;99.90;;;2.37;100.00;101481.81;4168955;28;20085;-78
2023/02/21 07:21:56;;;;;;;19.38;15.80;;;3.40;99.90;;;2.43;100.00;101481.47;4168833;28;20043;-78
2023/02/21 07:23:58;;;;;;;20.38;15.77;;;3.50;99.90;;;2.43;100.00;101477.13;4168647;28;20029;-78
2023/02/21 07:25:58;;;;;;;20.13;15.82;;;3.50;99.90;;;2.45;100.00;101471.84;4170322;28;20049;-78
2023/02/21 07:28:00;;;;;;;20.35;16.42;;;3.60;99.90;;;2.52;100.00;101478.38;4169359;28;20021;-78
2023/02/21 07:30:01;;;;;;;22.58;15.77;;;3.60;99.90;;;2.51;100.00;101481.91;4152485;28;20084;-78
2023/02/21 07:32:03;;;;;;;20.80;16.20;;;3.60;99.90;;;2.50;100.00;101472.41;4169050;28;20081;-78
2023/02/21 07:34:03;;;;;;;22.75;15.55;;;3.60;99.90;;;2.56;100.00;101477.28;4168676;28;20029;-78
2023/02/21 07:36:05;;;;;;;22.42;16.90;;;3.60;99.90;;;2.52;100.00;101470.56;4168823;28;20520;-78
2023/02/21 07:38:06;;;;;;;23.00;16.13;;;3.60;99.90;;;2.62;100.00;101484.75;4168615;28;20072;-78
2023/02/21 07:40:07;;;;;;;22.90;15.25;;;3.70;99.90;;;2.67;100.00;101480.09;4169740;28;20485;-78
2023/02/21 07:42:08;;;;;;;19.90;16.60;;;3.70;99.90;;;2.69;100.00;101483.44;4168391;28;20022;-78
2023/02/21 07:44:09;;;;;;;21.65;16.08;;;3.70;99.90;;;2.73;100.00;101483.19;4169522;28;20079;-78
2023/02/21 07:46:12;;;;;;;20.33;16.00;;;3.70;99.90;;;2.78;100.00;101483.75;4174770;28;20012;-78
2023/02/21 07:48:13;;;;;;;21.60;16.33;;;3.80;99.90;;;2.83;100.00;101487.88;4177363;28;20040;-78
2023/02/21 07:50:15;;;;;;;24.27;17.27;;;3.80;99.90;;;2.85;100.00;101483.41;4169289;28;20022;-78
2023/02/21 07:52:16;;;;;;;21.00;16.80;;;3.90;99.90;;;3.00;100.00;101487.75;4168128;28;20488;-78
2023/02/21 07:54:17;;;;;;;22.40;16.95;;;3.90;99.90;;;2.95;100.00;101468.94;4175141;28;20025;-78
2023/02/21 07:56:18;;;;;;;23.13;17.80;;;4.00;99.90;;;3.11;100.00;101483.56;4180555;28;20021;-78
2023/02/21 07:58:20;;;;;;;24.50;17.70;;;4.10;99.90;;;3.14;100.00;101483.38;4168327;28;20075;-78
2023/02/21 08:00:24;;;;;;;23.63;18.80;;;4.20;99.90;;;3.16;100.00;101478.09;4167979;28;20033;-78
2023/02/21 08:02:24;;;;;;;20.70;16.92;;;4.20;99.90;;;3.28;100.00;101490.41;4168448;28;20045;-78
2023/02/21 08:04:25;;;;;;;23.63;17.48;;;4.30;99.90;;;3.33;100.00;101485.75;4167556;28;20611;-78
2023/02/21 08:06:26;;;;;;;22.10;17.38;;;4.30;99.90;;;3.45;100.00;101476.34;4173009;28;20024;-78
2023/02/21 08:08:27;;;;;;;23.63;16.92;;;4.40;99.90;;;3.55;100.00;101469.66;4168746;28;20410;-78
2023/02/21 08:10:29;;;;;;;23.70;17.30;;;4.40;99.90;;;3.50;100.00;101461.25;4169264;28;20485;-78
2023/02/21 08:12:30;;;;;;;23.65;16.73;;;4.50;99.90;;;3.61;100.00;101471.91;4171190;28;20021;-78
2023/02/21 08:14:31;;;;;;;21.92;17.35;;;4.60;99.90;;;3.64;100.00;101449.06;4184609;28;20404;-78
2023/02/21 08:16:32;;;;;;;24.98;17.40;;;4.60;99.90;;;3.74;100.00;101460.59;4171306;28;20025;-78
2023/02/21 08:18:33;;;;;;;20.63;15.73;;;4.70;99.90;;;3.80;100.00;101465.44;4168202;28;20393;-78
2023/02/21 08:20:34;;;;;;;21.52;17.05;;;4.80;99.90;;;3.79;100.00;101468.16;4184354;28;20028;-78
2023/02/21 08:22:38;;;;;;;21.33;15.13;;;4.80;99.90;;;3.82;100.00;101457.53;4168100;28;20032;-78
2023/02/21 08:24:39;;;;;;;19.25;15.73;;;4.90;99.90;;;3.93;100.00;101468.13;4167950;28;20093;-78
2023/02/21 08:26:40;;;;;;;21.90;15.77;;;4.90;99.90;;;3.94;100.00;101467.19;4168328;28;20048;-78
2023/02/21 08:28:41;;;;;;;22.05;16.13;;;5.00;99.90;;;3.98;100.00;101476.50;4167919;28;20029;-78
2023/02/21 08:30:42;;;;;;;19.25;15.63;;;4.90;99.90;;;3.85;100.00;101460.75;4168944;28;20508;-78
2023/02/21 08:32:47;;;;;;;21.27;15.57;;;4.90;99.90;;;3.93;100.00;101468.13;4167970;28;20025;-78
2023/02/21 08:34:49;;;;;;;21.35;14.73;;;4.90;99.90;;;3.92;100.00;101456.00;4167768;28;20064;-78
2023/02/21 08:36:50;;;;;;;20.23;15.70;;;5.00;99.90;;;4.02;100.00;101482.38;4175358;28;20025;-78
2023/02/21 08:38:51;;;;;;;20.52;16.27;;;5.00;99.90;;;4.13;100.00;101488.59;4171543;28;20032;-78
2023/02/21 08:40:52;;;;;;;18.38;14.32;;;5.10;99.90;;;4.30;100.00;101501.41;4151490;28;20494;-78
2023/02/21 08:42:53;;;;;;;18.73;14.88;;;5.20;99.90;;;4.39;100.00;101498.22;4168858;28;20028;-78
2023/02/21 08:44:54;;;;;;;19.13;14.50;;;5.30;99.90;;;4.53;100.00;101497.34;4168937;28;20108;-78
2023/02/21 08:46:55;;;;;;;18.55;15.15;;;5.40;99.90;;;4.58;100.00;101492.66;4177187;28;20029;-78
2023/02/21 08:48:56;;;;;;;19.98;14.50;;;5.50;99.90;;;4.59;100.00;101485.66;4151535;28;20038;-78
2023/02/21 08:50:57;;;;;;;19.38;14.95;;;5.60;99.90;;;4.69;100.00;101486.75;4168519;28;20029;-78
2023/02/21 08:52:58;;;;;;;18.73;14.90;;;5.60;99.90;;;4.81;100.00;101501.59;4184257;28;20032;-78
2023/02/21 08:54:59;;;;;;;17.75;15.02;;;5.70;99.90;;;4.81;100.00;101485.91;4178773;28;20048;-78
2023/02/21 08:57:00;;;;;;;17.60;13.65;;;5.70;99.90;;;4.90;100.00;101485.31;4174939;28;20389;-78
2023/02/21 08:59:02;;;;;;;16.75;13.50;;;5.80;99.90;;;5.06;100.00;101495.59;4168843;28;20025;-78
2023/02/21 09:01:03;;;;;;;17.35;13.50;;;5.90;99.90;;;5.04;100.00;101472.19;4168890;28;20481;-78
2023/02/21 09:03:04;;;;;;;18.02;14.32;;;6.00;99.90;;;5.11;100.00;101468.19;4167233;28;20029;-78
2023/02/21 09:05:19;;;;;;;18.20;13.80;;;6.10;99.90;;;5.26;100.00;101468.94;4181253;28;20097;-78
2023/02/21 09:07:21;;;;;;;17.95;14.73;;;6.20;99.90;;;5.38;100.00;101481.16;4167384;28;20520;-78
2023/02/21 09:09:22;;;;;;;24.23;15.73;;;6.30;99.90;;;5.42;100.00;101491.34;4168942;28;20048;-78
2023/02/21 09:11:23;;;;;;;20.88;15.32;;;6.40;99.90;;;5.40;100.00;101468.84;4168604;28;20033;-78
2023/02/21 09:13:28;;;;;;;19.08;13.52;;;6.40;99.90;;;5.62;100.00;101482.09;4167424;28;20021;-78
2023/02/21 09:15:29;;;;;;;17.25;13.77;;;6.50;99.90;;;5.73;100.00;101481.38;4151889;28;20468;-78
2023/02/21 09:17:33;;;;;;;19.80;15.35;;;6.70;99.90;;;5.75;100.00;101477.69;4170565;28;20021;-78
2023/02/21 09:19:34;;;;;;;22.10;15.82;;;6.70;99.90;;;5.74;100.00;101489.09;4170891;28;20048;-78
2023/02/21 09:21:35;;;;;;;17.60;14.10;;;6.70;99.90;;;5.84;100.00;101477.06;4170573;28;20033;-78
2023/02/21 09:23:36;;;;;;;17.45;14.32;;;6.70;99.90;;;5.97;100.00;101471.84;4170703;28;20060;-78
2023/02/21 09:25:37;;;;;;;21.35;15.32;;;6.80;99.90;;;5.98;100.00;101476.94;4170474;28;20111;-78
2023/02/21 09:27:41;;;;;;;17.15;14.30;;;6.90;99.90;;;6.12;100.00;101468.13;4171356;28;20100;-78
2023/02/21 09:29:42;;;;;;;18.10;14.95;;;7.00;99.90;;;6.31;100.00;101465.84;4174049;28;20055;-78
2023/02/21 09:31:43;;;;;;;20.55;16.95;;;7.10;99.90;;;6.20;100.00;101462.31;4187699;28;20025;-78
2023/02/21 09:33:44;;;;;;;21.85;18.08;;;7.20;99.90;;;6.23;100.00;101446.38;4178394;28;20091;-78
2023/02/21 09:35:45;;;;;;;21.60;17.92;;;7.20;99.90;;;6.40;100.00;101459.09;4171408;28;20080;-78
2023/02/21 09:37:47;;;;;;;21.85;17.65;;;7.30;99.90;;;6.51;100.00;101454.75;4182950;28;20397;-78
2023/02/21 09:39:48;;;;;;;17.63;14.63;;;7.40;99.90;;;6.41;100.00;101447.66;4171823;28;20580;-78
2023/02/21 09:41:52;;;;;;;20.48;14.75;;;7.50;99.90;;;6.45;100.00;101443.88;4170478;28;20030;-78
2023/02/21 09:43:54;;;;;;;19.30;16.35;;;7.50;99.90;;;6.56;100.00;101429.03;4170219;28;20112;-78
2023/02/21 09:46:02;;;;;;;18.15;14.85;;;7.50;99.90;;;6.46;100.00;101425.41;4170505;28;20042;-78
2023/02/21 09:48:21;;;;;;;18.38;14.32;;;7.60;99.90;;;6.68;100.00;101420.28;4186880;28;20453;-77
2023/02/21 09:50:31;;;;;;;20.05;15.52;;;7.60;99.90;;;6.79;100.00;101416.00;4153515;28;20036;-78
2023/02/21 09:52:34;;;;;;;19.08;15.10;;;7.70;99.90;;;6.71;100.00;101402.63;4186330;28;20492;-78
2023/02/21 09:54:42;;;;;;;20.60;14.68;;;7.80;99.90;;;6.56;100.00;101405.47;4161860;28;20029;-78
2023/02/21 09:56:44;;;;;;;16.38;13.68;;;7.70;99.90;;;6.76;100.00;101397.88;4180904;28;20017;-78
2023/02/21 09:58:45;;;;;;;17.02;13.60;;;7.80;99.90;;;6.69;100.00;101374.72;4169927;28;20033;-78
2023/02/21 10:00:47;;;;;;;19.30;14.85;;;7.80;99.90;;;6.56;100.00;101388.88;4170221;28;20029;-78
2023/02/21 10:03:42;;;;;;;16.75;14.57;;;7.80;99.90;;;6.61;100.00;101377.09;4170498;28;20048;-78
2023/02/21 10:06:13;;;;;;;19.58;15.05;;;7.70;99.90;;;6.67;100.00;101373.19;4177201;28;20028;-77
2023/02/21 10:08:36;;;;;;;18.15;14.23;;;7.70;99.90;;;6.41;100.00;101375.16;4173157;28;20067;-78
2023/02/21 10:11:01;;;;;;;19.75;14.55;;;7.70;99.90;;;6.55;100.00;101376.72;4170050;28;20017;-78
2023/02/21 10:13:26;;;;;;;17.83;14.85;;;7.60;99.90;;;6.44;100.00;101372.28;4170646;28;20428;-78
2023/02/21 10:16:04;;;;;;;23.85;15.32;;;7.60;99.90;;;6.55;100.00;101356.59;4175287;28;20030;-78
2023/02/21 10:18:34;;;;;;;18.73;14.98;;;7.60;99.90;;;6.72;100.00;101351.88;4152632;28;20041;-78
2023/02/21 10:20:44;;;;;;;16.98;14.65;;;7.70;99.90;;;6.68;100.00;101370.47;4185096;28;20017;-78
2023/02/21 10:22:47;;;;;;;19.50;15.05;;;7.80;99.90;;;6.96;100.00;101355.25;4169805;28;20486;-78
2023/02/21 10:24:49;;;;;;;18.50;14.70;;;7.90;99.90;;;7.18;100.00;101365.75;4169727;28;20021;-78
2023/02/21 10:27:06;;;;;;;17.05;13.80;;;8.10;99.90;;;7.29;100.00;101352.59;4169049;28;20183;-78
2023/02/21 10:29:23;;;;;;;19.02;14.70;;;8.20;99.90;;;7.28;100.00;101350.97;4153718;28;20037;-78
2023/02/21 10:31:36;;;;;;;18.42;15.15;;;8.30;99.90;;;7.37;100.00;101354.66;4170162;28;20108;-78
2023/02/21 10:33:38;;;;;;;16.75;14.27;;;8.40;99.90;;;7.41;100.00;101356.91;4169772;28;20025;-77
2023/02/21 10:35:39;;;;;;;18.90;15.10;;;8.40;99.90;;;7.67;100.00;101355.69;4169727;28;20513;-78
2023/02/21 10:37:52;;;;;;;19.05;14.90;;;8.60;99.90;;;7.73;100.00;101351.75;4180477;28;20021;-78
2023/02/21 10:40:01;;;;;;;17.70;14.63;;;8.70;99.90;;;7.71;100.00;101336.09;4185986;28;20093;-78
2023/02/21 10:42:03;;;;;;;21.08;15.05;;;8.90;99.90;;;7.72;100.00;101343.03;4185822;28;20029;-78
2023/02/21 10:44:30;;;;;;;19.80;14.32;;;8.90;99.90;;;7.94;100.00;101338.66;4169227;28;20096;-78
2023/02/21 10:46:42;;;;;;;15.63;12.95;;;8.90;99.90;;;8.22;100.00;101343.31;4188965;28;20081;-78
2023/02/21 10:48:46;;;;;;;18.17;14.30;;;9.10;99.90;;;8.39;100.00;101358.59;4157277;28;20033;-78